createdAt,value
2022-11-16T00:00:48.217Z,7.40
2022-11-16T00:15:57.339Z,7.40
2022-11-16T00:31:00.812Z,7.40
2022-11-16T00:46:03.718Z,7.70
2022-11-16T01:01:08.967Z,7.70
2022-11-16T01:16:17.845Z,7.40
2022-11-16T01:31:21.016Z,7.30
2022-11-16T01:46:25.925Z,7.30
2022-11-16T02:35:20.669Z,7.30
2022-11-16T02:50:23.978Z,7.40
2022-11-16T03:05:35.626Z,7.50
2022-11-16T03:20:39.707Z,7.40
2022-11-16T03:35:47.274Z,7.30
2022-11-16T03:50:49.661Z,6.80
2022-11-16T04:06:09.996Z,6.40
2022-11-16T04:37:52.660Z,6.00
2022-11-16T05:09:25.249Z,5.80
2022-11-16T05:24:36.158Z,5.80
2022-11-16T05:39:38.259Z,5.70
2022-11-16T05:54:40.135Z,5.70
2022-11-16T06:57:44.371Z,5.80
2022-11-16T07:12:54.855Z,6.60
2022-11-16T07:28:09.581Z,6.30
2022-11-16T07:43:17.572Z,5.90
2022-11-16T07:58:26.986Z,6.10
2022-11-16T08:13:32.848Z,5.40
2022-11-16T08:28:38.900Z,6.40
2022-11-16T08:43:41.882Z,6.30
2022-11-16T08:58:44.437Z,6.40
2022-11-16T09:13:47.882Z,6.60
2022-11-16T09:28:58.448Z,6.50
2022-11-16T09:44:30.012Z,6.40
2022-11-16T09:59:56.607Z,6.50
2022-11-16T10:15:07.712Z,6.40
2022-11-16T10:30:09.872Z,6.10
2022-11-16T10:45:20.746Z,6.00
2022-11-16T11:00:49.558Z,6.00
2022-11-16T11:15:51.794Z,6.10
2022-11-16T11:31:08.393Z,6.20
2022-11-16T11:46:19.450Z,6.20
2022-11-16T12:01:52.816Z,6.10
2022-11-16T12:17:39.843Z,6.20
2022-11-16T12:33:12.830Z,6.10
2022-11-16T12:48:36.036Z,5.90
2022-11-16T13:03:55.098Z,6.00
2022-11-16T13:18:59.765Z,5.90
2022-11-16T13:34:16.149Z,6.00
2022-11-16T13:49:28.461Z,5.90
2022-11-16T14:04:38.795Z,6.20
2022-11-16T14:19:44.475Z,6.20
2022-11-16T14:34:48.913Z,6.20
2022-11-16T14:49:51.513Z,6.10
2022-11-16T15:04:54.048Z,6.20
2022-11-16T15:20:06.097Z,6.00
2022-11-16T15:35:14.119Z,5.90
2022-11-16T15:50:19.227Z,5.90
2022-11-16T16:05:34.905Z,5.80
2022-11-16T16:20:36.825Z,5.70
2022-11-16T16:35:38.832Z,5.70
2022-11-16T16:50:41.247Z,5.70
2022-11-16T17:05:43.158Z,5.60
2022-11-16T17:20:45.618Z,5.70
2022-11-16T17:35:56.842Z,5.60
2022-11-16T17:50:58.864Z,5.50
2022-11-16T18:06:13.494Z,5.50
2022-11-16T18:21:20.684Z,5.40
2022-11-16T18:36:23.112Z,5.30
2022-11-16T18:51:28.176Z,5.30
2022-11-16T19:06:32.166Z,5.20
2022-11-16T19:21:34.134Z,5.20
2022-11-16T19:36:37.276Z,5.20
2022-11-16T19:51:39.219Z,5.10
2022-11-16T20:06:41.378Z,5.00
2022-11-16T20:21:44.149Z,5.00
2022-11-16T20:36:47.517Z,5.00
2022-11-16T20:51:51.202Z,4.80
2022-11-16T21:06:53.145Z,4.70
2022-11-16T21:21:55.168Z,4.70
2022-11-16T21:36:57.094Z,4.70
2022-11-16T21:51:58.948Z,4.80
2022-11-16T22:07:19.472Z,4.70
2022-11-16T22:22:21.497Z,4.80
2022-11-16T22:37:23.618Z,4.80
2022-11-16T22:52:25.512Z,4.60
2022-11-16T23:07:27.442Z,4.50
2022-11-16T23:22:47.920Z,4.50
2022-11-16T23:37:56.816Z,4.50
2022-11-16T23:52:59.127Z,4.50
